Time;durP1;ratioP1;P1;durP2;ratioP2;P2;SDS_P1;SDS_P2;PMS_P1;PMS_P2;Temp;Humidity;BMP_temperature;BMP_pressure;BME280_temperature;BME280_humidity;BME280_pressure;Samples;Min_cycle;Max_cycle;Signal;HPM_P1;HPM_P2
2023/03/05 00:01:36;;;;;;;0.60;0.40;;;6.80;99.90;;;;;;5020584;28;20448;-78
2023/03/05 00:04:05;;;;;;;0.50;0.17;;;6.80;99.90;;;;;;5025125;28;20550;-77
2023/03/05 00:06:34;;;;;;;1.80;1.70;;;6.80;99.90;;;;;;5016702;28;20490;-77
2023/03/05 00:09:02;;;;;;;0.50;0.20;;;6.80;99.90;;;;;;5013369;28;20453;-76
2023/03/05 00:11:32;;;;;;;0.50;0.10;;;6.70;99.90;;;;;;5013641;28;20953;-76
2023/03/05 00:14:02;;;;;;;0.50;0.10;;;6.70;99.90;;;;;;5016786;28;20454;-77
2023/03/05 00:16:30;;;;;;;0.50;0.10;;;6.70;99.90;;;;;;5004323;28;20466;-77
2023/03/05 00:19:00;;;;;;;0.50;0.10;;;6.70;99.90;;;;;;5029248;28;20519;-75
2023/03/05 00:21:30;;;;;;;0.50;0.10;;;6.70;99.90;;;;;;5030650;28;20469;-76
2023/03/05 00:24:01;;;;;;;0.50;0.20;;;6.70;99.90;;;;;;5004827;28;20463;-75
2023/03/05 00:26:30;;;;;;;0.60;0.20;;;6.60;99.90;;;;;;5006596;28;20548;-77
2023/03/05 00:28:58;;;;;;;0.60;0.40;;;6.60;99.90;;;;;;5015682;28;20451;-75
2023/03/05 00:31:29;;;;;;;2.87;1.33;;;6.60;99.90;;;;;;5016258;28;20540;-75
2023/03/05 00:34:00;;;;;;;0.50;0.10;;;6.60;99.90;;;;;;5026321;28;20447;-75
2023/03/05 00:36:28;;;;;;;0.50;0.10;;;6.60;99.90;;;;;;5026189;28;20567;-76
2023/03/05 00:38:58;;;;;;;0.50;0.10;;;6.50;99.90;;;;;;5022812;28;20486;-77
2023/03/05 00:41:27;;;;;;;0.50;0.10;;;6.50;99.90;;;;;;5022010;28;20467;-77
2023/03/05 00:43:55;;;;;;;0.50;0.10;;;6.50;99.90;;;;;;5021319;28;20531;-75
2023/03/05 00:46:26;;;;;;;0.50;0.10;;;6.50;99.90;;;;;;5024956;28;20471;-75
2023/03/05 00:48:53;;;;;;;0.50;0.30;;;6.60;99.90;;;;;;5030636;28;20510;-78
2023/03/05 00:51:22;;;;;;;2.63;2.33;;;6.50;99.90;;;;;;5029270;28;20977;-76
2023/03/05 00:53:49;;;;;;;0.50;0.10;;;6.50;99.90;;;;;;5027961;28;20457;-77
2023/03/05 00:56:19;;;;;;;0.50;0.10;;;6.40;99.90;;;;;;5010329;28;20455;-77
2023/03/05 00:58:47;;;;;;;0.60;0.30;;;6.40;99.90;;;;;;5018763;28;20490;-76
2023/03/05 05:02:58;;;;;;;0.50;0.10;;;5.60;99.90;;;;;;5006843;28;20532;-76
2023/03/05 05:05:27;;;;;;;0.50;0.10;;;5.60;99.90;;;;;;5016987;28;20534;-77
2023/03/05 05:07:56;;;;;;;0.50;0.10;;;5.60;99.90;;;;;;4999612;28;20440;-76
2023/03/05 05:10:25;;;;;;;0.50;0.10;;;5.50;99.90;;;;;;4999867;28;20858;-77
2023/03/05 05:12:53;;;;;;;0.50;0.10;;;5.50;99.90;;;;;;4991363;28;21165;-77
2023/03/05 05:15:21;;;;;;;0.50;0.10;;;5.50;99.90;;;;;;4997000;28;20445;-75
2023/03/05 05:17:49;;;;;;;0.50;0.10;;;5.50;99.90;;;;;;4997408;28;20571;-76
2023/03/05 05:20:18;;;;;;;0.50;0.10;;;5.50;99.90;;;;;;4999527;28;20448;-76
2023/03/05 05:22:46;;;;;;;0.50;0.10;;;5.50;99.90;;;;;;4996231;28;20471;-76
2023/03/05 05:25:14;;;;;;;0.50;0.10;;;5.50;99.90;;;;;;4995601;28;20449;-76
2023/03/05 05:27:42;;;;;;;0.50;0.10;;;5.50;99.90;;;;;;4995851;28;20539;-77
2023/03/05 05:30:11;;;;;;;0.50;0.10;;;5.50;99.90;;;;;;4996374;28;20484;-76
2023/03/05 05:32:39;;;;;;;0.50;0.10;;;5.50;99.90;;;;;;4995476;28;20530;-76
2023/03/05 05:35:07;;;;;;;0.50;0.10;;;5.50;99.90;;;;;;5001482;28;20892;-76
2023/03/05 05:37:37;;;;;;;0.50;0.10;;;5.50;99.90;;;;;;4995693;28;20452;-76
2023/03/05 05:40:07;;;;;;;0.50;0.10;;;5.50;99.90;;;;;;4995417;28;20447;-76
2023/03/05 05:42:35;;;;;;;0.50;0.10;;;5.60;99.90;;;;;;4986841;28;20482;-76
2023/03/05 05:45:03;;;;;;;0.50;0.10;;;5.60;99.90;;;;;;4994915;28;20443;-76
2023/03/05 05:47:31;;;;;;;0.50;0.10;;;5.50;99.90;;;;;;4995042;28;20439;-76
2023/03/05 05:49:58;;;;;;;0.50;0.10;;;5.60;99.90;;;;;;4995282;28;20440;-74
2023/03/05 05:52:26;;;;;;;0.50;0.10;;;5.50;99.90;;;;;;4994785;28;20471;-75
2023/03/05 05:54:55;;;;;;;0.50;0.10;;;5.60;99.90;;;;;;4994250;28;20448;-74
2023/03/05 05:57:23;;;;;;;0.50;0.10;;;5.10;99.90;;;;;;4992311;28;20966;-76
2023/03/05 05:59:52;;;;;;;0.50;0.10;;;5.60;99.90;;;;;;4994656;28;20492;-76
2023/03/05 06:02:19;;;;;;;0.50;0.10;;;5.60;99.90;;;;;;4994525;28;20483;-75
2023/03/05 06:04:47;;;;;;;0.50;0.10;;;5.50;99.90;;;;;;4994742;28;20449;-75
2023/03/05 06:07:15;;;;;;;0.50;0.10;;;5.50;99.90;;;;;;4995619;28;20459;-77
2023/03/05 06:09:43;;;;;;;0.50;0.10;;;5.60;99.90;;;;;;4995707;28;20451;-75
2023/03/05 06:12:12;;;;;;;0.50;0.10;;;5.60;99.90;;;;;;4994992;28;20467;-74
2023/03/05 06:14:40;;;;;;;0.50;0.10;;;5.60;99.90;;;;;;4994925;28;20516;-76
2023/03/05 06:17:08;;;;;;;0.50;0.10;;;5.60;99.90;;;;;;4994672;28;20458;-76
2023/03/05 06:19:39;;;;;;;0.50;0.10;;;5.50;99.90;;;;;;4991692;28;20854;-75
2023/03/05 06:22:07;;;;;;;0.50;0.10;;;5.50;99.90;;;;;;5006902;28;20467;-76
2023/03/05 06:24:35;;;;;;;0.50;0.10;;;5.50;99.90;;;;;;5001993;28;20945;-75
2023/03/05 06:27:04;;;;;;;0.50;0.10;;;5.50;99.90;;;;;;5003183;28;20447;-74
2023/03/05 06:29:34;;;;;;;0.50;0.10;;;5.50;99.90;;;;;;5013665;28;20439;-75
2023/03/05 06:32:01;;;;;;;0.50;0.10;;;5.60;99.90;;;;;;5016596;28;20467;-75
2023/03/05 06:34:29;;;;;;;0.57;0.37;;;5.60;99.90;;;;;;5016326;28;20455;-74
2023/03/05 06:36:57;;;;;;;0.50;0.10;;;5.60;99.90;;;;;;5005686;28;20450;-77
2023/03/05 06:39:26;;;;;;;0.50;0.10;;;5.70;99.90;;;;;;4995059;28;20490;-76
2023/03/05 06:41:53;;;;;;;0.50;0.10;;;5.70;99.90;;;;;;4990459;28;20513;-76
2023/03/05 06:44:21;;;;;;;0.50;0.10;;;5.70;99.90;;;;;;4994355;28;20460;-75
2023/03/05 06:46:50;;;;;;;0.50;0.10;;;5.70;99.90;;;;;;4991316;28;20445;-75
2023/03/05 06:49:18;;;;;;;0.50;0.10;;;5.60;99.90;;;;;;4974612;28;20887;-75
2023/03/05 06:51:46;;;;;;;0.50;0.10;;;5.60;99.90;;;;;;4975157;28;20468;-75
2023/03/05 06:54:16;;;;;;;0.50;0.10;;;5.60;99.90;;;;;;4974760;28;20453;-75
2023/03/05 06:56:45;;;;;;;0.50;0.10;;;5.60;99.90;;;;;;4974746;28;20445;-74
2023/03/05 06:59:15;;;;;;;0.50;0.10;;;5.60;99.90;;;;;;4977227;28;20488;-74
2023/03/05 07:01:43;;;;;;;0.50;0.10;;;5.70;99.90;;;;;;4985099;28;20496;-76
2023/03/05 07:04:14;;;;;;;0.50;0.10;;;5.70;99.90;;;;;;4990672;28;20466;-75
2023/03/05 07:06:42;;;;;;;0.50;0.10;;;5.70;99.90;;;;;;4987608;28;20459;-75
2023/03/05 07:09:13;;;;;;;0.50;0.10;;;5.70;99.90;;;;;;4993568;28;20440;-75
2023/03/05 07:11:41;;;;;;;0.50;0.10;;;5.70;99.90;;;;;;4993449;28;20491;-75
2023/03/05 07:14:09;;;;;;;0.50;0.10;;;5.70;99.90;;;;;;4993703;28;20447;-75
2023/03/05 07:16:37;;;;;;;0.50;0.10;;;5.70;99.90;;;;;;4993982;28;20446;-75
2023/03/05 07:19:06;;;;;;;0.50;0.10;;;5.70;99.90;;;;;;4994045;28;20487;-75
2023/03/05 07:21:35;;;;;;;0.50;0.10;;;5.60;99.90;;;;;;4988681;28;20480;-75
2023/03/05 07:24:07;;;;;;;0.50;0.10;;;5.60;99.90;;;;;;5005156;28;20449;-75
2023/03/05 07:26:35;;;;;;;0.50;0.10;;;5.60;99.90;;;;;;4988895;28;20803;-75
2023/03/05 07:29:03;;;;;;;0.50;0.10;;;5.60;99.90;;;;;;4987268;28;20473;-75
2023/03/05 07:31:31;;;;;;;0.50;0.10;;;5.60;99.90;;;;;;4980536;28;20469;-75
2023/03/05 07:34:01;;;;;;;0.50;0.10;;;5.60;99.90;;;;;;4981413;28;20533;-75
2023/03/05 07:36:29;;;;;;;0.50;0.10;;;5.60;99.90;;;;;;4981110;28;20448;-75
2023/03/05 07:38:59;;;;;;;0.50;0.10;;;5.60;99.90;;;;;;4974858;28;20841;-75
2023/03/05 07:41:27;;;;;;;0.50;0.10;;;5.60;99.90;;;;;;4975402;28;20477;-75
2023/03/05 07:43:55;;;;;;;0.50;0.10;;;5.50;99.90;;;;;;4974449;28;20815;-75
2023/03/05 07:46:26;;;;;;;0.50;0.10;;;5.50;99.90;;;;;;4974061;28;20457;-75
2023/03/05 07:48:54;;;;;;;1.57;1.47;;;5.50;99.90;;;;;;4973857;28;20450;-74
2023/03/05 07:51:23;;;;;;;0.50;0.10;;;5.50;99.90;;;;;;4973401;28;20468;-76
2023/03/05 07:53:53;;;;;;;0.50;0.10;;;5.50;99.90;;;;;;4974104;28;20453;-74
2023/03/05 07:56:23;;;;;;;0.50;0.10;;;5.50;99.90;;;;;;4974924;28;20460;-74
2023/03/05 07:58:51;;;;;;;0.50;0.10;;;5.60;99.90;;;;;;4975868;28;20452;-73
2023/03/05 08:01:19;;;;;;;0.50;0.20;;;5.60;99.90;;;;;;4977282;28;20485;-75
2023/03/05 08:03:47;;;;;;;0.50;0.10;;;5.60;99.90;;;;;;4994799;28;20451;-76
2023/03/05 08:06:15;;;;;;;0.50;0.10;;;5.60;99.90;;;;;;4994484;28;20441;-74
2023/03/05 08:08:43;;;;;;;0.50;0.10;;;5.60;99.90;;;;;;4995528;28;20451;-75
2023/03/05 08:11:13;;;;;;;1.63;1.53;;;5.60;99.90;;;;;;4993438;28;20841;-74
2023/03/05 08:13:45;;;;;;;0.50;0.10;;;5.60;99.90;;;;;;4994198;28;20447;-75
2023/03/05 08:16:14;;;;;;;0.50;0.10;;;5.70;99.90;;;;;;4993969;28;20452;-74
2023/03/05 08:18:42;;;;;;;0.50;0.10;;;5.70;99.90;;;;;;4994297;28;20456;-74
2023/03/05 08:21:16;;;;;;;0.50;0.10;;;5.60;99.90;;;;;;4993531;28;20487;-75
2023/03/05 08:23:44;;;;;;;0.50;0.10;;;5.60;99.90;;;;;;4993428;28;20448;-75
2023/03/05 08:26:14;;;;;;;1.80;1.70;;;5.60;99.90;;;;;;4998705;28;20475;-75
2023/03/05 08:28:41;;;;;;;0.50;0.20;;;5.60;99.90;;;;;;5002345;28;20448;-76
2023/03/05 08:31:11;;;;;;;0.50;0.10;;;5.70;99.90;;;;;;4998775;28;20476;-76
2023/03/05 08:33:40;;;;;;;0.50;0.10;;;5.70;99.90;;;;;;5004321;28;20447;-75
2023/03/05 08:36:09;;;;;;;0.50;0.10;;;5.70;99.90;;;;;;5004824;28;20935;-74
2023/03/05 08:38:36;;;;;;;0.50;0.10;;;5.70;99.90;;;;;;5001108;28;20471;-76
2023/03/05 08:41:05;;;;;;;0.50;0.10;;;5.60;99.90;;;;;;4999084;28;20508;-75
2023/03/05 08:43:33;;;;;;;0.60;0.37;;;5.60;99.90;;;;;;4989695;28;20456;-76
2023/03/05 08:46:02;;;;;;;0.50;0.20;;;5.60;99.90;;;;;;4977848;28;20452;-75
2023/03/05 08:48:32;;;;;;;0.50;0.10;;;5.60;99.90;;;;;;4976988;28;20916;-75
2023/03/05 08:51:05;;;;;;;0.50;0.10;;;5.70;99.90;;;;;;4977510;28;20466;-76
2023/03/05 08:53:33;;;;;;;0.50;0.10;;;5.60;99.90;;;;;;4977318;28;20936;-75
2023/03/05 08:56:01;;;;;;;0.50;0.20;;;5.70;99.90;;;;;;4977334;28;20445;-76
2023/03/05 08:58:29;;;;;;;0.50;0.10;;;5.70;99.90;;;;;;4977227;28;20958;-74
2023/03/05 09:00:57;;;;;;;0.50;0.10;;;;;;;;;;4976210;28;21209;-75
2023/03/05 09:03:25;;;;;;;0.70;0.60;;;5.70;99.90;;;;;;4977104;28;20441;-75
2023/03/05 09:06:00;;;;;;;0.50;0.10;;;5.80;99.90;;;;;;4977459;28;20829;-75
2023/03/05 09:08:28;;;;;;;0.50;0.10;;;5.80;99.90;;;;;;5018498;28;20821;-75
2023/03/05 09:10:57;;;;;;;0.67;0.67;;;5.80;99.90;;;;;;5019266;28;20521;-73
2023/03/05 09:13:25;;;;;;;0.70;0.57;;;5.80;99.90;;;;;;5010263;28;20530;-75
2023/03/05 09:15:56;;;;;;;0.50;0.10;;;5.70;99.90;;;;;;4998902;28;20448;-75
2023/03/05 09:18:25;;;;;;;0.50;0.10;;;5.80;99.90;;;;;;4998078;28;20440;-74
2023/03/05 09:20:53;;;;;;;2.13;2.00;;;5.80;99.90;;;;;;4996920;28;20975;-76
2023/03/05 09:23:23;;;;;;;0.50;0.10;;;5.80;99.90;;;;;;4996472;28;20471;-76
2023/03/05 09:25:51;;;;;;;0.50;0.10;;;5.80;99.90;;;;;;4996891;28;20471;-75
2023/03/05 09:28:19;;;;;;;1.60;1.13;;;5.80;99.90;;;;;;4996396;28;20459;-75
2023/03/05 09:30:46;;;;;;;0.50;0.20;;;5.80;99.90;;;;;;4997941;28;20449;-75
2023/03/05 09:33:14;;;;;;;0.50;0.10;;;5.70;99.90;;;;;;4998859;28;20478;-75
2023/03/05 09:35:42;;;;;;;1.07;1.03;;;5.70;99.90;;;;;;4998223;28;20455;-77
2023/03/05 09:38:10;;;;;;;0.50;0.20;;;5.70;99.90;;;;;;4997131;28;20514;-75
2023/03/05 09:40:45;;;;;;;0.50;0.20;;;5.70;99.90;;;;;;4993823;28;20487;-77
2023/03/05 09:43:25;;;;;;;0.50;0.10;;;5.70;99.90;;;;;;4993252;28;20451;-77
2023/03/05 09:46:14;;;;;;;0.80;0.77;;;5.70;99.90;;;;;;4995954;28;20495;-77
2023/03/05 09:48:50;;;;;;;0.60;0.40;;;5.70;99.90;;;;;;4995155;28;20522;-76
2023/03/05 09:51:23;;;;;;;0.60;0.57;;;5.70;99.90;;;;;;4995638;28;20462;-75
2023/03/05 09:53:58;;;;;;;2.30;0.80;;;5.70;99.90;;;;;;4995300;28;20471;-75
2023/03/05 09:56:34;;;;;;;2.17;2.07;;;5.60;99.90;;;;;;4995552;28;20459;-78
2023/03/05 09:59:14;;;;;;;0.50;0.10;;;5.60;99.90;;;;;;4997462;28;20823;-77
2023/03/05 10:01:44;;;;;;;0.50;0.10;;;5.70;99.90;;;;;;4996491;28;20510;-77
2023/03/05 10:04:16;;;;;;;0.50;0.10;;;5.80;99.90;;;;;;4996691;28;20483;-76
2023/03/05 10:06:50;;;;;;;1.63;0.60;;;5.90;99.90;;;;;;5003126;28;20493;-76
2023/03/05 10:09:28;;;;;;;0.50;0.10;;;5.90;99.90;;;;;;4995597;28;21178;-76
2023/03/05 10:12:00;;;;;;;1.27;0.50;;;6.00;99.90;;;;;;4993830;28;20967;-76
2023/03/05 10:14:30;;;;;;;0.50;0.10;;;6.10;99.90;;;;;;4992880;28;20441;-76
2023/03/05 10:17:12;;;;;;;0.50;0.10;;;6.10;99.90;;;;;;4995224;28;20456;-77
2023/03/05 10:20:03;;;;;;;0.50;0.10;;;6.10;99.90;;;;;;4995501;28;20444;-76
2023/03/05 10:22:33;;;;;;;0.50;0.10;;;6.30;99.90;;;;;;4957101;28;21237;-72
2023/03/05 10:25:17;;;;;;;0.50;0.10;;;6.30;99.90;;;;;;4994796;28;20459;-75
2023/03/05 10:27:51;;;;;;;0.50;0.10;;;6.40;99.90;;;;;;4996076;28;20445;-75
2023/03/05 10:30:33;;;;;;;0.50;0.10;;;6.50;99.90;;;;;;4995066;28;20444;-75
2023/03/05 10:33:12;;;;;;;2.40;1.80;;;6.50;99.90;;;;;;4995216;28;20440;-75
2023/03/05 10:36:04;;;;;;;0.50;0.10;;;6.60;99.90;;;;;;4992469;28;20448;-75
2023/03/05 10:38:58;;;;;;;0.50;0.10;;;6.60;99.90;;;;;;4992030;28;20437;-75
2023/03/05 10:41:35;;;;;;;0.83;0.70;;;6.60;99.90;;;;;;4996065;28;20492;-75
2023/03/05 10:44:10;;;;;;;0.50;0.10;;;6.60;99.90;;;;;;5013470;28;20436;-75
2023/03/05 10:46:40;;;;;;;0.50;0.10;;;6.60;99.90;;;;;;5014892;28;20443;-74
2023/03/05 10:49:26;;;;;;;0.53;0.30;;;;;;;;;;5008326;28;20448;-76
2023/03/05 10:52:03;;;;;;;0.50;0.20;;;6.50;99.90;;;;;;4997117;28;20953;-77
2023/03/05 10:54:34;;;;;;;0.50;0.10;;;6.50;99.90;;;;;;4995901;28;20456;-76
2023/03/05 10:57:16;;;;;;;0.90;0.43;;;6.50;99.90;;;;;;4996355;28;20437;-75
2023/03/05 10:59:52;;;;;;;0.50;0.10;;;6.40;99.90;;;;;;4996529;28;20452;-73
2023/03/05 11:02:21;;;;;;;0.50;0.10;;;6.30;99.90;;;;;;4996061;28;20500;-75
2023/03/05 11:04:53;;;;;;;0.50;0.10;;;6.30;99.90;;;;;;4995428;28;20863;-75
2023/03/05 11:07:38;;;;;;;0.50;0.30;;;6.30;99.90;;;;;;4995015;28;20974;-77
2023/03/05 11:10:20;;;;;;;0.50;0.10;;;6.30;99.90;;;;;;4995311;28;20445;-78
2023/03/05 11:12:48;;;;;;;0.60;0.40;;;6.30;99.90;;;;;;4995307;28;20480;-76
2023/03/05 11:15:29;;;;;;;0.50;0.10;;;6.20;99.90;;;;;;4994291;28;20456;-76
2023/03/05 11:18:20;;;;;;;0.50;0.20;;;6.00;99.90;;;;;;4994198;28;21049;-75
2023/03/05 11:20:48;;;;;;;0.50;0.20;;;;;;;;;;4983709;28;20445;-75
2023/03/05 11:23:22;;;;;;;0.50;0.10;;;6.00;99.90;;;;;;4994348;28;20789;-76
2023/03/05 11:25:55;;;;;;;0.50;0.10;;;6.00;99.90;;;;;;4993827;28;20554;-76
2023/03/05 11:28:31;;;;;;;2.60;1.10;;;6.00;99.90;;;;;;4994449;28;20482;-75
2023/03/05 11:31:19;;;;;;;1.20;0.90;;;5.80;99.90;;;;;;4994124;28;20822;-76
2023/03/05 11:33:55;;;;;;;0.50;0.10;;;;;;;;;;4992103;28;20458;-77
2023/03/05 11:36:28;;;;;;;0.60;0.37;;;5.70;99.90;;;;;;4993179;28;20435;-77
2023/03/05 11:38:59;;;;;;;1.73;1.63;;;5.60;99.90;;;;;;4990172;28;20460;-76
2023/03/05 11:41:34;;;;;;;0.50;0.30;;;5.50;99.90;;;;;;4993664;28;20492;-76
2023/03/05 11:44:09;;;;;;;0.50;0.10;;;5.40;99.90;;;;;;4975024;28;20463;-75
2023/03/05 11:46:45;;;;;;;0.80;0.77;;;5.40;99.90;;;;;;4975874;28;20453;-77
2023/03/05 11:49:18;;;;;;;2.20;0.57;;;5.40;99.90;;;;;;4975952;28;20488;-76
2023/03/05 11:51:53;;;;;;;2.30;0.83;;;5.40;99.90;;;;;;5001336;28;20498;-76
2023/03/05 11:54:26;;;;;;;1.57;0.87;;;5.50;99.90;;;;;;4997605;28;21322;-77
2023/03/05 11:56:55;;;;;;;1.53;1.43;;;5.50;99.90;;;;;;4996852;28;20531;-77
2023/03/05 11:59:27;;;;;;;0.50;0.10;;;5.50;99.90;;;;;;5010440;28;20447;-75
2023/03/05 12:01:58;;;;;;;0.50;0.10;;;5.50;99.90;;;;;;5009399;28;20526;-76
2023/03/05 12:04:26;;;;;;;0.50;0.17;;;5.50;99.90;;;;;;5007493;28;20811;-75
2023/03/05 12:06:57;;;;;;;0.50;0.10;;;5.60;99.90;;;;;;4995735;28;20568;-75
2023/03/05 12:09:33;;;;;;;0.50;0.10;;;5.80;99.90;;;;;;4997197;28;20456;-75
2023/03/05 12:12:09;;;;;;;0.50;0.10;;;5.90;99.90;;;;;;4990244;28;20462;-77
2023/03/05 12:14:45;;;;;;;0.50;0.10;;;6.00;99.90;;;;;;5003609;28;20459;-77
2023/03/05 12:17:21;;;;;;;1.23;0.73;;;6.10;99.90;;;;;;4998024;28;20491;-77
2023/03/05 12:19:55;;;;;;;0.50;0.10;;;6.20;99.90;;;;;;5002685;28;20490;-77
2023/03/05 12:22:26;;;;;;;0.60;0.50;;;6.20;99.90;;;;;;4999400;28;20497;-76
2023/03/05 12:25:24;;;;;;;0.50;0.10;;;6.20;99.90;;;;;;4999220;28;20444;-78
2023/03/05 12:27:52;;;;;;;0.60;0.40;;;6.30;99.90;;;;;;4997238;28;20531;-77
2023/03/05 12:30:55;;;;;;;0.50;0.10;;;6.40;99.90;;;;;;5000817;28;20444;-78
2023/03/05 12:33:48;;;;;;;0.50;0.10;;;6.40;99.90;;;;;;4984039;28;20449;-75
2023/03/05 12:36:38;;;;;;;0.60;0.53;;;6.50;99.90;;;;;;4997921;28;20455;-77
2023/03/05 12:39:49;;;;;;;0.50;0.10;;;6.60;99.90;;;;;;5000455;28;20452;-75
2023/03/05 12:42:45;;;;;;;0.50;0.10;;;6.70;99.90;;;;;;4967931;28;20480;-76
2023/03/05 12:45:39;;;;;;;0.57;0.30;;;6.60;99.90;;;;;;4994878;28;20832;-78
2023/03/05 12:48:32;;;;;;;9.63;4.80;;;;;;;;;;4987512;28;20807;-78
2023/03/05 12:51:11;;;;;;;0.60;0.30;;;6.60;99.90;;;;;;5001203;28;20492;-80
2023/03/05 12:53:38;;;;;;;0.90;0.77;;;6.60;99.90;;;;;;4999216;28;20943;-78
2023/03/05 12:56:16;;;;;;;1.70;0.60;;;6.60;99.90;;;;;;5002690;28;20447;-79
2023/03/05 12:58:50;;;;;;;0.80;0.73;;;6.60;99.90;;;;;;5003131;28;20444;-80
2023/03/05 13:01:39;;;;;;;3.00;0.30;;;6.60;99.90;;;;;;4999991;28;20574;-80
2023/03/05 13:04:15;;;;;;;0.80;0.43;;;6.60;99.90;;;;;;4995748;28;20460;-78
2023/03/05 13:06:45;;;;;;;0.50;0.20;;;6.70;99.90;;;;;;4996271;28;20462;-78
2023/03/05 13:09:17;;;;;;;0.50;0.13;;;6.70;99.90;;;;;;4993843;28;20462;-77
2023/03/05 13:11:48;;;;;;;0.50;0.20;;;6.70;99.90;;;;;;4996932;28;20488;-76
2023/03/05 13:14:30;;;;;;;0.80;0.40;;;6.70;99.90;;;;;;4997617;28;20443;-76
2023/03/05 13:16:59;;;;;;;0.90;0.73;;;6.70;99.90;;;;;;4996674;28;20570;-77
2023/03/05 13:19:28;;;;;;;0.50;0.20;;;7.90;99.90;;;;;;5000213;28;20968;-78
2023/03/05 13:22:03;;;;;;;0.50;0.10;;;6.70;99.90;;;;;;4999204;28;20584;-77
2023/03/05 13:24:31;;;;;;;2.20;1.60;;;6.70;99.90;;;;;;5004476;28;20451;-79
2023/03/05 13:26:59;;;;;;;0.50;0.20;;;6.70;99.90;;;;;;5003222;28;20448;-78
2023/03/05 13:29:29;;;;;;;0.50;0.10;;;6.60;99.90;;;;;;4999031;28;20824;-76
2023/03/05 13:31:59;;;;;;;0.60;0.43;;;6.60;99.90;;;;;;4997191;28;20899;-76
2023/03/05 13:34:30;;;;;;;0.50;0.10;;;6.50;99.90;;;;;;5000896;28;20940;-76
2023/03/05 13:37:18;;;;;;;1.80;0.40;;;6.50;99.90;;;;;;4996895;28;20443;-76
2023/03/05 13:39:50;;;;;;;1.27;0.77;;;6.40;99.90;;;;;;4990950;28;20469;-74
2023/03/05 13:42:19;;;;;;;0.50;0.10;;;6.40;99.90;;;;;;4997117;28;20534;-74
2023/03/05 13:44:55;;;;;;;0.50;0.20;;;6.40;99.90;;;;;;4992944;28;20457;-73
2023/03/05 13:47:27;;;;;;;0.50;0.10;;;6.40;99.90;;;;;;4996404;28;20425;-71
2023/03/05 13:49:59;;;;;;;0.50;0.10;;;6.40;99.90;;;;;;4997064;28;20456;-73
2023/03/05 13:52:30;;;;;;;0.50;0.10;;;6.50;99.90;;;;;;5012585;28;20461;-74
2023/03/05 13:54:59;;;;;;;0.50;0.20;;;6.60;99.90;;;;;;5013988;28;20469;-75
2023/03/05 13:57:37;;;;;;;0.50;0.10;;;6.70;99.90;;;;;;5011364;28;20886;-75
2023/03/05 14:00:07;;;;;;;0.90;0.50;;;6.70;99.90;;;;;;4983474;28;20487;-75
2023/03/05 14:02:35;;;;;;;1.17;1.17;;;6.80;99.90;;;;;;4984681;28;20520;-77
2023/03/05 14:05:03;;;;;;;0.50;0.10;;;6.70;99.90;;;;;;4993813;28;20441;-75
2023/03/05 14:07:38;;;;;;;0.60;0.30;;;6.70;99.90;;;;;;4995312;28;20452;-75
2023/03/05 14:10:29;;;;;;;0.50;0.10;;;6.70;99.90;;;;;;4994032;28;20460;-72
2023/03/05 14:12:58;;;;;;;0.50;0.30;;;6.60;99.90;;;;;;4992149;28;20453;-74
2023/03/05 14:15:27;;;;;;;0.50;0.10;;;6.60;99.90;;;;;;4994750;28;20506;-75
2023/03/05 14:18:09;;;;;;;0.50;0.10;;;6.80;99.90;;;;;;4994563;28;20445;-72
2023/03/05 14:20:37;;;;;;;0.50;0.23;;;6.70;99.90;;;;;;4995226;28;20441;-72
2023/03/05 14:23:33;;;;;;;0.50;0.27;;;6.70;99.90;;;;;;4990308;28;20491;-72
2023/03/05 14:26:30;;;;;;;0.50;0.10;;;6.60;99.90;;;;;;4991223;28;20955;-72
2023/03/05 14:29:01;;;;;;;0.50;0.10;;;6.40;99.90;;;;;;4978403;28;20463;-72
2023/03/05 14:31:32;;;;;;;0.50;0.10;;;6.40;99.90;;;;;;4995477;28;20488;-72
2023/03/05 14:34:02;;;;;;;0.60;0.20;;;6.40;99.90;;;;;;4991503;28;20441;-74
2023/03/05 14:36:31;;;;;;;0.50;0.10;;;6.40;99.90;;;;;;4993459;28;20444;-74
2023/03/05 14:39:01;;;;;;;1.20;0.50;;;6.50;99.90;;;;;;4993546;28;20445;-72
2023/03/05 14:41:36;;;;;;;0.50;0.20;;;6.50;99.90;;;;;;4993352;28;20481;-72
2023/03/05 14:44:11;;;;;;;0.50;0.10;;;6.50;99.90;;;;;;4994192;28;20506;-74
2023/03/05 14:46:39;;;;;;;0.50;0.10;;;6.50;99.90;;;;;;4993644;28;20507;-72
2023/03/05 14:49:07;;;;;;;0.50;0.20;;;6.40;99.90;;;;;;4994418;28;20462;-71
2023/03/05 14:51:40;;;;;;;1.37;0.70;;;6.40;99.90;;;;;;5001670;28;20479;-72
2023/03/05 14:54:19;;;;;;;0.50;0.10;;;6.40;99.90;;;;;;5011581;28;20490;-71
2023/03/05 14:56:48;;;;;;;2.00;1.37;;;;;;;;;;5012104;28;20448;-77
2023/03/05 14:59:16;;;;;;;0.50;0.10;;;6.50;99.90;;;;;;5001815;28;20450;-74
2023/03/05 15:01:44;;;;;;;0.97;0.87;;;6.40;99.90;;;;;;4996247;28;20480;-73
2023/03/05 15:04:14;;;;;;;0.50;0.10;;;6.30;99.90;;;;;;4996196;28;20616;-72
2023/03/05 15:06:46;;;;;;;0.50;0.10;;;6.40;99.90;;;;;;4996603;28;20881;-71
2023/03/05 15:09:16;;;;;;;0.70;0.30;;;6.50;99.90;;;;;;4995907;28;20455;-73
2023/03/05 15:11:44;;;;;;;0.60;0.30;;;6.50;99.90;;;;;;4992333;28;20487;-73
2023/03/05 15:14:12;;;;;;;0.60;0.33;;;6.40;99.90;;;;;;4997118;28;20456;-70
2023/03/05 15:16:43;;;;;;;0.50;0.10;;;6.40;99.90;;;;;;4994570;28;20445;-72
2023/03/05 15:19:12;;;;;;;0.50;0.10;;;6.40;99.90;;;;;;4994299;28;20445;-72
2023/03/05 15:21:40;;;;;;;0.50;0.10;;;6.40;99.90;;;;;;4993641;28;21016;-74
2023/03/05 15:24:08;;;;;;;1.70;1.60;;;6.40;99.90;;;;;;4992103;28;20496;-72
2023/03/05 15:26:39;;;;;;;0.50;0.20;;;6.30;99.90;;;;;;4988746;28;20541;-74
2023/03/05 15:29:07;;;;;;;0.50;0.10;;;6.30;99.90;;;;;;4992563;28;20480;-73
2023/03/05 15:31:37;;;;;;;1.00;0.70;;;6.20;99.90;;;;;;4993044;28;20469;-70
2023/03/05 15:34:06;;;;;;;0.50;0.10;;;6.20;99.90;;;;;;4994309;28;20536;-75
2023/03/05 15:36:35;;;;;;;1.53;0.50;;;6.20;99.90;;;;;;4998104;28;20479;-77
2023/03/05 15:39:03;;;;;;;1.33;1.23;;;6.30;99.90;;;;;;4999263;28;20451;-73
2023/03/05 15:41:30;;;;;;;0.50;0.10;;;5.30;99.90;;;;;;4993358;28;20491;-71
2023/03/05 15:44:00;;;;;;;0.50;0.10;;;6.30;99.90;;;;;;4999724;28;20481;-74
2023/03/05 15:46:28;;;;;;;0.60;0.20;;;6.30;99.90;;;;;;4997042;28;20463;-73
2023/03/05 15:48:56;;;;;;;0.50;0.20;;;6.20;99.90;;;;;;4993947;28;20486;-74
2023/03/05 15:51:23;;;;;;;0.50;0.10;;;6.20;99.90;;;;;;4992346;28;20472;-73
2023/03/05 15:53:53;;;;;;;0.50;0.10;;;6.20;99.90;;;;;;4993094;28;20441;-72
2023/03/05 15:56:20;;;;;;;0.90;0.47;;;6.20;99.90;;;;;;4994373;28;20460;-72
2023/03/05 15:58:49;;;;;;;0.50;0.10;;;6.20;99.90;;;;;;4993333;28;20531;-73
2023/03/05 16:01:19;;;;;;;0.50;0.10;;;6.10;99.90;;;;;;4993863;28;20523;-75
2023/03/05 16:03:47;;;;;;;0.50;0.10;;;6.10;99.90;;;;;;4995713;28;20957;-74
2023/03/05 16:06:19;;;;;;;0.50;0.10;;;6.20;99.90;;;;;;4997656;28;20667;-73
2023/03/05 16:08:47;;;;;;;0.57;0.20;;;6.20;99.90;;;;;;4997899;28;20475;-74
2023/03/05 16:11:15;;;;;;;0.50;0.20;;;6.20;99.90;;;;;;4993304;28;20230;-72
2023/03/05 16:13:43;;;;;;;0.50;0.10;;;6.20;99.90;;;;;;4998951;28;20449;-74
2023/03/05 16:16:12;;;;;;;0.50;0.10;;;6.20;99.90;;;;;;4997528;28;20467;-73
2023/03/05 16:18:45;;;;;;;0.60;0.53;;;6.20;99.90;;;;;;4994166;28;20511;-71
2023/03/05 16:21:13;;;;;;;0.50;0.10;;;6.30;99.90;;;;;;4994299;28;20472;-75
2023/03/05 16:23:41;;;;;;;0.50;0.10;;;6.30;99.90;;;;;;4995262;28;20487;-73
2023/03/05 16:26:09;;;;;;;0.50;0.10;;;6.30;99.90;;;;;;4994644;28;20453;-72
2023/03/05 16:28:37;;;;;;;0.50;0.10;;;6.30;99.90;;;;;;4994597;28;20464;-74
2023/03/05 16:31:05;;;;;;;1.90;0.93;;;6.30;99.90;;;;;;4994454;28;20482;-71
2023/03/05 16:33:33;;;;;;;2.50;0.60;;;6.30;99.90;;;;;;4994992;28;20472;-74
2023/03/05 16:36:21;;;;;;;0.50;0.10;;;6.30;99.90;;;;;;4994029;28;20458;-72
2023/03/05 16:38:51;;;;;;;0.50;0.20;;;6.10;99.90;;;;;;4994011;28;20940;-74
2023/03/05 16:41:20;;;;;;;1.10;0.60;;;;;;;;;;4994051;28;20476;-70
2023/03/05 16:43:52;;;;;;;0.60;0.10;;;6.00;99.90;;;;;;4994423;28;20490;-74
2023/03/05 16:46:20;;;;;;;0.50;0.10;;;5.90;99.90;;;;;;4996883;28;20457;-72
2023/03/05 16:48:48;;;;;;;0.50;0.20;;;5.90;99.90;;;;;;4997625;28;20530;-73
2023/03/05 16:51:16;;;;;;;0.50;0.20;;;5.90;99.90;;;;;;4995330;28;20477;-74
2023/03/05 16:53:48;;;;;;;0.50;0.10;;;5.80;99.90;;;;;;4995741;28;20461;-72
2023/03/05 16:56:16;;;;;;;0.80;0.73;;;5.90;99.90;;;;;;4993780;28;20452;-75
2023/03/05 16:58:44;;;;;;;0.50;0.20;;;5.90;99.90;;;;;;4995746;28;20459;-74
2023/03/05 17:01:15;;;;;;;0.50;0.10;;;5.90;99.90;;;;;;4996717;28;20986;-71
2023/03/05 17:03:43;;;;;;;0.50;0.10;;;;;;;;;;4992225;28;20930;-72
2023/03/05 17:06:13;;;;;;;0.97;0.40;;;;;;;;;;4997600;28;20590;-71
2023/03/05 17:08:41;;;;;;;0.50;0.20;;;6.00;99.90;;;;;;4996716;28;20453;-74
2023/03/05 17:11:11;;;;;;;0.50;0.10;;;6.10;99.90;;;;;;4996402;28;20484;-73
2023/03/05 17:13:40;;;;;;;0.50;0.20;;;6.10;99.90;;;;;;4996469;28;20507;-74
2023/03/05 17:16:09;;;;;;;0.50;0.10;;;;;;;;;;4996438;28;20452;-72
2023/03/05 17:18:37;;;;;;;0.50;0.10;;;6.10;99.90;;;;;;4997270;28;20472;-75
2023/03/05 17:21:07;;;;;;;0.50;0.10;;;6.10;99.90;;;;;;4988653;28;20476;-73
2023/03/05 17:23:35;;;;;;;1.17;0.40;;;6.10;99.90;;;;;;4996046;28;20455;-73
2023/03/05 17:26:04;;;;;;;2.03;1.23;;;6.10;99.90;;;;;;4985412;28;20485;-75